createdAt,value
2018-03-27T00:00:35.769Z,5.79
2018-03-27T00:03:06.627Z,5.69
2018-03-27T00:05:37.672Z,5.83
2018-03-27T00:08:08.661Z,5.79
2018-03-27T00:10:39.346Z,5.83
2018-03-27T00:13:10.050Z,5.67
2018-03-27T00:15:40.851Z,5.76
2018-03-27T00:18:11.646Z,5.60
2018-03-27T00:20:42.691Z,5.75
2018-03-27T00:23:13.732Z,5.72
2018-03-27T00:25:44.783Z,5.74
2018-03-27T00:28:26.546Z,5.50
2018-03-27T00:31:07.136Z,5.54
2018-03-27T00:33:46.891Z,5.37
2018-03-27T00:36:26.715Z,5.27
2018-03-27T00:39:06.435Z,5.32
2018-03-27T00:44:49.776Z,5.39
2018-03-27T00:47:18.829Z,5.42
2018-03-27T00:49:47.775Z,5.37
2018-03-27T00:52:16.722Z,5.33
2018-03-27T00:54:45.725Z,5.34
2018-03-27T00:57:14.683Z,5.43
2018-03-27T00:59:43.711Z,5.42
2018-03-27T01:02:12.824Z,5.46
2018-03-27T01:04:41.780Z,5.44
2018-03-27T01:07:10.731Z,5.45
2018-03-27T01:09:39.724Z,5.40
2018-03-27T01:12:08.701Z,5.28
2018-03-27T01:14:37.696Z,5.33
2018-03-27T01:17:06.707Z,5.34
2018-03-27T01:19:35.723Z,5.35
2018-03-27T01:22:04.104Z,5.33
2018-03-27T01:24:33.438Z,5.36
2018-03-27T01:27:02.684Z,5.24
2018-03-27T01:29:31.625Z,5.25
2018-03-27T01:32:00.948Z,5.28
2018-03-27T01:34:29.894Z,5.17
2018-03-27T01:36:58.882Z,5.21
2018-03-27T01:39:27.928Z,5.22
2018-03-27T01:41:56.864Z,5.24
2018-03-27T01:44:25.813Z,5.23
2018-03-27T01:46:54.814Z,5.11
2018-03-27T01:49:23.764Z,5.13
2018-03-27T01:51:52.732Z,5.05
2018-03-27T01:54:22.083Z,5.14
2018-03-27T01:56:51.055Z,5.20
2018-03-27T01:59:20.015Z,5.15
2018-03-27T02:01:49.281Z,5.06
2018-03-27T02:04:18.562Z,4.95
2018-03-27T02:06:47.527Z,5.14
2018-03-27T02:09:16.636Z,5.09
2018-03-27T02:11:50.801Z,5.18
2018-03-27T02:14:25.192Z,5.23
2018-03-27T02:16:59.662Z,5.04
2018-03-27T02:19:34.088Z,5.16
2018-03-27T02:22:02.222Z,5.14
2018-03-27T02:24:35.390Z,5.20
2018-03-27T02:27:04.561Z,5.11
2018-03-27T02:29:33.611Z,5.07
2018-03-27T02:32:02.637Z,5.07
2018-03-27T02:34:31.586Z,5.04
2018-03-27T02:37:00.611Z,5.06
2018-03-27T02:39:29.695Z,5.01
2018-03-27T02:41:58.653Z,5.03
2018-03-27T02:44:27.623Z,4.94
2018-03-27T02:46:56.880Z,4.92
2018-03-27T02:49:25.851Z,4.90
2018-03-27T02:51:54.807Z,4.73
2018-03-27T02:54:24.364Z,4.70
2018-03-27T02:56:53.559Z,4.66
2018-03-27T02:59:22.906Z,4.54
2018-03-27T03:01:52.152Z,4.47
2018-03-27T03:04:21.447Z,4.44
2018-03-27T03:06:50.784Z,4.55
2018-03-27T03:09:20.093Z,4.52
2018-03-27T03:11:49.352Z,4.59
2018-03-27T03:14:18.467Z,4.34
2018-03-27T03:16:47.752Z,4.37
2018-03-27T03:19:18.426Z,4.32
2018-03-27T03:21:49.220Z,4.40
2018-03-27T03:24:19.781Z,4.41
2018-03-27T03:26:50.476Z,4.37
2018-03-27T03:29:21.127Z,4.42
2018-03-27T03:31:51.810Z,4.43
2018-03-27T03:34:22.300Z,4.54
2018-03-27T03:36:53.081Z,4.55
2018-03-27T03:39:23.694Z,4.34
2018-03-27T03:41:54.723Z,4.35
2018-03-27T03:44:25.705Z,4.37
2018-03-27T03:46:56.824Z,4.48
2018-03-27T03:49:27.736Z,4.38
2018-03-27T03:51:58.477Z,4.43
2018-03-27T03:54:29.081Z,4.47
2018-03-27T03:56:59.825Z,4.53
2018-03-27T03:59:30.765Z,4.56
2018-03-27T04:02:01.868Z,4.47
2018-03-27T04:04:32.942Z,4.31
2018-03-27T04:07:03.796Z,4.30
2018-03-27T04:09:34.712Z,4.36
2018-03-27T04:12:05.732Z,4.26
2018-03-27T04:14:36.343Z,4.10
2018-03-27T04:17:07.120Z,4.16
2018-03-27T04:19:37.099Z,4.26
2018-03-27T04:22:07.723Z,4.28
2018-03-27T04:24:38.715Z,4.31
2018-03-27T04:27:09.824Z,4.31
2018-03-27T04:29:40.358Z,4.36
2018-03-27T04:32:11.078Z,4.40
2018-03-27T04:34:41.723Z,4.41
2018-03-27T04:37:12.796Z,4.40
2018-03-27T04:39:43.699Z,4.38
2018-03-27T04:42:14.758Z,4.38
2018-03-27T04:44:45.756Z,4.37
2018-03-27T04:47:16.624Z,4.33
2018-03-27T04:49:47.617Z,4.34
2018-03-27T04:52:21.007Z,4.31
2018-03-27T04:54:50.363Z,4.30
2018-03-27T04:57:21.158Z,4.17
2018-03-27T04:59:51.827Z,4.10
2018-03-27T05:02:22.850Z,4.07
2018-03-27T05:04:53.695Z,4.12
2018-03-27T05:07:24.777Z,4.04
2018-03-27T05:09:55.661Z,4.11
2018-03-27T05:12:26.739Z,4.09
2018-03-27T05:14:57.671Z,4.11
2018-03-27T05:17:29.052Z,4.12
2018-03-27T05:20:00.286Z,4.13
2018-03-27T05:22:30.074Z,4.12
2018-03-27T05:25:00.800Z,4.10
2018-03-27T05:27:31.752Z,4.08
2018-03-27T05:30:02.648Z,4.06
2018-03-27T05:32:33.343Z,4.04
2018-03-27T05:35:04.046Z,4.00
2018-03-27T05:37:34.857Z,3.91
2018-03-27T05:40:05.670Z,3.80
2018-03-27T05:42:36.728Z,3.75
2018-03-27T05:45:07.753Z,3.73
2018-03-27T05:47:38.706Z,3.78
2018-03-27T05:50:09.691Z,3.70
2018-03-27T05:52:40.753Z,3.61
2018-03-27T05:55:12.050Z,3.61
2018-03-27T05:57:43.661Z,3.66
2018-03-27T06:00:14.492Z,3.73
2018-03-27T06:02:45.436Z,3.75
2018-03-27T06:05:16.118Z,3.74
2018-03-27T06:07:46.841Z,3.85
2018-03-27T06:10:18.082Z,3.91
2018-03-27T06:12:48.758Z,4.99
2018-03-27T06:15:19.667Z,5.08
2018-03-27T06:17:50.745Z,4.48
2018-03-27T06:20:21.685Z,4.33
2018-03-27T06:22:52.859Z,4.13
2018-03-27T06:25:23.745Z,3.95
2018-03-27T06:27:54.816Z,3.89
2018-03-27T06:30:25.620Z,3.91
2018-03-27T06:32:56.370Z,3.95
2018-03-27T06:35:27.052Z,3.91
2018-03-27T06:37:57.881Z,3.93
2018-03-27T06:40:28.695Z,3.96
2018-03-27T06:42:59.754Z,3.99
2018-03-27T06:45:30.687Z,4.00
2018-03-27T06:48:01.733Z,4.06
2018-03-27T06:50:32.731Z,4.11
2018-03-27T06:53:03.435Z,4.12
2018-03-27T06:55:38.548Z,4.15
2018-03-27T06:58:08.884Z,4.14
2018-03-27T07:00:38.156Z,4.13
2018-03-27T07:03:07.489Z,4.03
2018-03-27T07:05:38.336Z,4.08
2018-03-27T07:08:09.122Z,4.11
2018-03-27T07:10:40.367Z,4.10
2018-03-27T07:13:11.701Z,4.22
2018-03-27T07:15:42.467Z,4.17
2018-03-27T07:18:13.150Z,4.26
2018-03-27T07:20:43.893Z,4.25
2018-03-27T07:23:14.683Z,4.43
2018-03-27T07:25:45.741Z,4.56
2018-03-27T07:28:16.685Z,4.58
2018-03-27T07:30:47.738Z,4.63
2018-03-27T07:33:18.451Z,4.63
2018-03-27T07:35:49.391Z,4.69
2018-03-27T07:38:20.074Z,4.64
2018-03-27T07:40:50.870Z,4.64
2018-03-27T07:43:21.730Z,4.78
2018-03-27T07:45:52.710Z,4.76
2018-03-27T07:48:23.698Z,4.85
2018-03-27T07:50:53.814Z,4.81
2018-03-27T07:53:24.767Z,4.87
2018-03-27T07:55:55.764Z,4.97
2018-03-27T07:58:26.727Z,4.96
2018-03-27T08:00:57.401Z,4.97
2018-03-27T08:03:28.296Z,4.94
2018-03-27T08:05:59.022Z,4.82
2018-03-27T08:08:29.698Z,4.74
2018-03-27T08:11:00.821Z,4.83
2018-03-27T08:13:31.722Z,4.84
2018-03-27T08:16:02.770Z,4.94
2018-03-27T08:18:33.666Z,4.91
2018-03-27T08:21:04.849Z,4.84
2018-03-27T08:23:36.419Z,4.85
2018-03-27T08:26:07.153Z,4.84
2018-03-27T08:28:37.725Z,5.03
2018-03-27T08:31:08.792Z,5.13
2018-03-27T08:33:39.743Z,5.16
2018-03-27T08:36:10.723Z,5.16
2018-03-27T08:38:41.745Z,5.20
2018-03-27T08:41:12.819Z,5.28
2018-03-27T08:43:43.656Z,5.18
2018-03-27T08:46:14.621Z,5.14
2018-03-27T08:48:45.643Z,5.17
2018-03-27T08:51:16.780Z,5.11
2018-03-27T08:53:47.987Z,5.10
2018-03-27T08:56:18.767Z,5.06
2018-03-27T08:58:49.758Z,5.11
2018-03-27T09:01:20.732Z,5.22
2018-03-27T09:03:51.793Z,5.35
2018-03-27T09:06:22.790Z,5.32
2018-03-27T09:08:53.697Z,5.48
2018-03-27T09:11:24.817Z,5.41
2018-03-27T09:13:55.699Z,5.51
2018-03-27T09:16:26.813Z,5.38
2018-03-27T09:18:57.680Z,5.54
2018-03-27T09:21:28.731Z,5.79
2018-03-27T09:23:59.668Z,5.61
2018-03-27T09:26:30.731Z,5.48
2018-03-27T09:29:06.803Z,5.55
2018-03-27T09:31:36.131Z,5.72
2018-03-27T09:34:05.400Z,5.63
2018-03-27T09:36:35.105Z,5.72
2018-03-27T09:39:05.387Z,5.79
2018-03-27T09:41:36.693Z,5.98
2018-03-27T09:44:07.751Z,6.10
2018-03-27T09:46:38.769Z,6.18
2018-03-27T09:49:09.745Z,6.31
2018-03-27T09:51:40.640Z,6.27
2018-03-27T09:54:11.693Z,6.24
2018-03-27T09:56:42.695Z,6.18
2018-03-27T09:59:13.606Z,6.34
2018-03-27T10:01:44.197Z,6.40
2018-03-27T10:04:14.938Z,6.54
2018-03-27T10:06:45.657Z,6.55
2018-03-27T10:09:16.750Z,6.33
2018-03-27T10:11:47.657Z,6.32
2018-03-27T10:14:18.338Z,6.46
2018-03-27T10:16:49.010Z,6.21
2018-03-27T10:19:19.766Z,6.31
2018-03-27T10:21:50.651Z,6.31
2018-03-27T10:24:21.704Z,6.41
2018-03-27T10:26:52.726Z,6.41
2018-03-27T10:29:23.764Z,6.45
2018-03-27T10:31:54.434Z,6.54
2018-03-27T10:34:25.139Z,6.58
2018-03-27T10:36:55.824Z,6.48
2018-03-27T10:39:26.722Z,6.37
2018-03-27T10:41:57.682Z,6.42
2018-03-27T10:44:28.749Z,6.39
2018-03-27T10:46:59.614Z,6.42
2018-03-27T10:49:30.644Z,6.51
2018-03-27T10:52:01.654Z,6.65
2018-03-27T10:54:32.715Z,7.01
2018-03-27T10:57:03.839Z,7.54
2018-03-27T10:59:34.767Z,7.84
2018-03-27T11:02:05.669Z,7.94
2018-03-27T11:04:37.308Z,7.67
2018-03-27T11:07:08.020Z,7.67
2018-03-27T11:09:38.850Z,7.52
2018-03-27T11:12:09.338Z,7.62
2018-03-27T11:14:40.059Z,7.65
2018-03-27T11:17:10.765Z,7.61
2018-03-27T11:19:41.663Z,7.15
2018-03-27T11:22:12.628Z,7.31
2018-03-27T11:24:43.954Z,7.18
2018-03-27T11:27:14.708Z,7.00
2018-03-27T11:29:45.820Z,7.09
2018-03-27T11:32:18.327Z,6.76
2018-03-27T11:34:48.082Z,6.93
2018-03-27T11:37:18.071Z,6.82
2018-03-27T11:39:48.822Z,7.00
2018-03-27T11:42:19.322Z,6.98
2018-03-27T11:44:49.856Z,6.93
2018-03-27T11:47:20.687Z,7.22
2018-03-27T11:49:51.775Z,7.08
2018-03-27T11:52:22.631Z,7.01
2018-03-27T11:54:53.578Z,7.06
2018-03-27T11:57:24.590Z,7.05
2018-03-27T11:59:55.658Z,7.18
2018-03-27T12:02:26.311Z,7.23
2018-03-27T12:04:57.139Z,7.16
2018-03-27T12:07:27.806Z,7.20
2018-03-27T12:09:58.887Z,7.41
2018-03-27T12:12:29.676Z,7.64
2018-03-27T12:15:00.727Z,7.59
2018-03-27T12:17:31.627Z,7.55
2018-03-27T12:20:02.720Z,7.55
2018-03-27T12:22:33.706Z,7.67
2018-03-27T12:25:04.803Z,7.77
2018-03-27T12:27:35.711Z,7.64
2018-03-27T12:30:06.840Z,7.60
2018-03-27T12:32:37.712Z,7.72
2018-03-27T12:35:08.801Z,8.53
2018-03-27T12:37:39.714Z,8.69
2018-03-27T12:40:10.766Z,8.68
2018-03-27T12:42:41.658Z,8.50
2018-03-27T12:45:12.306Z,8.48
2018-03-27T12:47:43.012Z,8.40
2018-03-27T12:50:13.784Z,8.17
2018-03-27T12:52:44.852Z,8.09
2018-03-27T12:55:15.768Z,7.94
2018-03-27T12:57:46.753Z,8.12
2018-03-27T13:00:17.726Z,8.32
2018-03-27T13:02:48.749Z,8.45
2018-03-27T13:05:19.794Z,8.51
2018-03-27T13:07:57.816Z,8.49
2018-03-27T13:10:27.219Z,8.11
2018-03-27T13:12:56.457Z,8.01
2018-03-27T13:15:25.873Z,8.15
2018-03-27T13:17:55.334Z,8.14
2018-03-27T13:20:26.020Z,8.14
2018-03-27T13:22:56.459Z,8.19
2018-03-27T13:25:26.973Z,8.27
2018-03-27T13:27:57.803Z,8.23
2018-03-27T13:30:28.777Z,8.36
2018-03-27T13:32:59.706Z,8.42
2018-03-27T13:35:32.263Z,8.48
2018-03-27T13:38:02.191Z,8.41
2018-03-27T13:40:32.715Z,8.45
2018-03-27T13:43:03.778Z,8.52
2018-03-27T13:45:34.725Z,8.62
2018-03-27T13:48:05.119Z,8.65
2018-03-27T13:50:36.702Z,8.52
2018-03-27T13:53:07.786Z,8.51
2018-03-27T13:55:38.692Z,8.39
2018-03-27T13:58:09.394Z,8.02
2018-03-27T14:00:40.024Z,7.82
2018-03-27T14:03:10.826Z,7.56
2018-03-27T14:05:41.927Z,7.74
2018-03-27T14:08:12.761Z,7.71
2018-03-27T14:10:43.711Z,7.91
2018-03-27T14:13:14.446Z,8.00
2018-03-27T14:15:45.047Z,7.94
2018-03-27T14:18:15.158Z,7.99
2018-03-27T14:20:45.707Z,8.05
2018-03-27T14:23:16.772Z,8.06
2018-03-27T14:25:47.395Z,7.88
2018-03-27T14:28:18.079Z,7.88
2018-03-27T14:30:48.763Z,7.80
2018-03-27T14:33:19.779Z,7.86
2018-03-27T14:35:50.704Z,7.90
2018-03-27T14:38:21.768Z,7.85
2018-03-27T14:40:52.707Z,7.84
2018-03-27T14:43:23.804Z,7.89
2018-03-27T14:45:54.672Z,7.82
2018-03-27T14:48:25.833Z,7.83
2018-03-27T14:50:56.795Z,7.84
2018-03-27T14:53:27.749Z,7.84
2018-03-27T14:55:58.754Z,7.92
2018-03-27T14:58:29.731Z,7.92
2018-03-27T15:01:00.806Z,7.98
2018-03-27T15:03:31.771Z,7.97
2018-03-27T15:06:02.674Z,7.84
2018-03-27T15:08:33.839Z,7.74
2018-03-27T15:11:04.375Z,7.74
2018-03-27T15:13:35.111Z,7.57
2018-03-27T15:16:05.768Z,7.50
2018-03-27T15:18:36.787Z,7.52
2018-03-27T15:21:07.655Z,7.46
2018-03-27T15:23:38.392Z,7.50
2018-03-27T15:26:09.084Z,7.46
2018-03-27T15:28:39.900Z,7.43
2018-03-27T15:31:10.947Z,7.43
2018-03-27T15:33:41.889Z,7.58
2018-03-27T15:36:12.665Z,7.75
2018-03-27T15:38:43.747Z,7.86
2018-03-27T15:41:14.708Z,8.10
2018-03-27T15:43:46.648Z,8.20
2018-03-27T15:46:17.313Z,8.42
2018-03-27T15:48:48.116Z,8.59
2018-03-27T15:51:18.886Z,8.36
2018-03-27T15:53:49.838Z,8.44
2018-03-27T15:56:20.752Z,8.54
2018-03-27T15:58:51.732Z,8.52
2018-03-27T16:01:22.786Z,8.49
2018-03-27T16:03:53.756Z,8.35
2018-03-27T16:06:24.872Z,8.44
2018-03-27T16:08:56.807Z,8.10
2018-03-27T16:11:27.350Z,8.12
2018-03-27T16:13:58.182Z,8.13
2018-03-27T16:16:28.849Z,7.94
2018-03-27T16:18:59.740Z,7.95
2018-03-27T16:21:30.675Z,7.95
2018-03-27T16:24:01.776Z,7.98
2018-03-27T16:26:32.768Z,7.98
2018-03-27T16:29:03.807Z,8.00
2018-03-27T16:31:35.247Z,7.93
2018-03-27T16:34:05.640Z,8.05
2018-03-27T16:36:36.642Z,8.01
2018-03-27T16:39:07.751Z,7.89
2018-03-27T16:41:38.728Z,7.73
2018-03-27T16:44:09.907Z,7.78
2018-03-27T16:46:40.718Z,7.80
2018-03-27T16:49:12.630Z,7.70
2018-03-27T16:51:43.293Z,7.69
2018-03-27T16:54:13.904Z,7.56
2018-03-27T16:56:45.177Z,7.38
2018-03-27T16:59:15.057Z,7.24
2018-03-27T17:01:45.908Z,7.15
2018-03-27T17:04:16.779Z,6.94
2018-03-27T17:06:47.833Z,7.00
2018-03-27T17:09:18.912Z,6.96
2018-03-27T17:11:49.340Z,6.92
2018-03-27T17:14:20.035Z,6.80
2018-03-27T17:16:51.364Z,6.73
2018-03-27T17:19:22.485Z,6.53
2018-03-27T17:21:53.157Z,6.48
2018-03-27T17:24:23.164Z,6.47
2018-03-27T17:26:53.786Z,6.47
2018-03-27T17:29:24.909Z,6.46
2018-03-27T17:31:55.636Z,6.50
2018-03-27T17:37:11.599Z,6.49
2018-03-27T17:39:41.053Z,6.45
2018-03-27T17:42:10.347Z,6.42
2018-03-27T17:44:39.618Z,6.39
2018-03-27T17:47:09.034Z,6.36
2018-03-27T17:49:38.367Z,6.31
2018-03-27T17:52:07.742Z,6.29
2018-03-27T17:54:37.372Z,6.27
2018-03-27T17:57:06.861Z,6.21
2018-03-27T17:59:36.115Z,6.16
2018-03-27T18:02:05.450Z,6.11
2018-03-27T18:04:35.262Z,6.05
2018-03-27T18:07:05.669Z,5.99
2018-03-27T18:09:37.272Z,5.94
2018-03-27T18:12:07.947Z,5.88
2018-03-27T18:14:38.750Z,5.83
2018-03-27T18:17:09.846Z,5.76
2018-03-27T18:19:40.507Z,5.67
2018-03-27T18:22:11.621Z,5.65
2018-03-27T18:24:42.667Z,5.60
2018-03-27T18:27:13.760Z,5.53
2018-03-27T18:29:45.260Z,5.50
2018-03-27T18:32:15.906Z,5.45
2018-03-27T18:34:46.848Z,5.40
2018-03-27T18:37:17.948Z,5.36
2018-03-27T18:39:48.763Z,5.29
2018-03-27T18:42:21.517Z,5.28
2018-03-27T18:44:50.932Z,5.23
2018-03-27T18:47:21.535Z,5.19
2018-03-27T18:49:52.218Z,5.15
2018-03-27T18:52:22.914Z,5.11
2018-03-27T18:54:53.720Z,5.06
2018-03-27T18:57:24.535Z,5.01
2018-03-27T18:59:55.552Z,4.96
2018-03-27T19:02:26.652Z,4.83
2018-03-27T19:04:57.690Z,4.85
2018-03-27T19:07:28.920Z,4.82
2018-03-27T19:09:59.925Z,4.78
2018-03-27T19:12:30.878Z,4.76
2018-03-27T19:15:01.754Z,4.76
2018-03-27T19:17:32.784Z,4.74
2018-03-27T19:20:03.760Z,4.72
2018-03-27T19:22:34.796Z,4.69
2018-03-27T19:25:05.402Z,4.68
2018-03-27T19:27:36.203Z,4.66
2018-03-27T19:30:06.866Z,4.68
2018-03-27T19:32:37.378Z,4.68
2018-03-27T19:35:08.096Z,4.67
2018-03-27T19:37:38.873Z,4.67
2018-03-27T19:40:09.384Z,4.65
2018-03-27T19:42:40.117Z,4.65
2018-03-27T19:45:10.837Z,4.62
2018-03-27T19:47:41.858Z,4.68
2018-03-27T19:50:12.817Z,4.70
2018-03-27T19:52:43.407Z,4.72
2018-03-27T19:55:14.114Z,4.65
2018-03-27T19:57:44.952Z,4.76
2018-03-27T20:00:15.366Z,4.46
2018-03-27T20:02:46.168Z,4.50
2018-03-27T20:05:16.768Z,4.59
2018-03-27T20:07:47.472Z,4.57
2018-03-27T20:10:18.234Z,4.50
2018-03-27T20:12:48.861Z,4.35
2018-03-27T20:15:24.814Z,4.20
2018-03-27T20:17:54.143Z,4.16
2018-03-27T20:20:23.427Z,4.15
2018-03-27T20:22:52.717Z,4.12
2018-03-27T20:25:22.501Z,4.01
2018-03-27T20:27:52.155Z,3.93
2018-03-27T20:30:22.823Z,3.96
2018-03-27T20:32:53.860Z,3.88
2018-03-27T20:35:24.464Z,3.57
2018-03-27T20:37:55.147Z,3.74
2018-03-27T20:40:25.932Z,3.76
2018-03-27T20:42:56.686Z,3.80
2018-03-27T20:45:27.502Z,3.72
2018-03-27T20:47:58.552Z,3.72
2018-03-27T20:50:29.622Z,3.76
2018-03-27T20:53:00.715Z,3.83
2018-03-27T20:55:31.911Z,3.70
2018-03-27T20:58:02.811Z,3.64
2018-03-27T21:00:33.753Z,3.62
2018-03-27T21:03:04.381Z,3.56
2018-03-27T21:05:36.242Z,3.52
2018-03-27T21:08:06.872Z,3.65
2018-03-27T21:10:37.999Z,3.63
2018-03-27T21:13:08.730Z,3.60
2018-03-27T21:15:39.799Z,3.60
2018-03-27T21:18:10.722Z,3.65
2018-03-27T21:20:41.847Z,3.69
2018-03-27T21:23:12.728Z,3.59
2018-03-27T21:25:43.799Z,3.71
2018-03-27T21:28:14.645Z,3.69
2018-03-27T21:30:45.768Z,3.58
2018-03-27T21:33:16.658Z,3.51
2018-03-27T21:35:47.369Z,3.49
2018-03-27T21:38:17.472Z,3.46
2018-03-27T21:40:48.204Z,3.31
2018-03-27T21:43:18.798Z,3.41
2018-03-27T21:45:49.806Z,3.29
2018-03-27T21:48:20.752Z,3.18
2018-03-27T21:50:51.140Z,3.19
2018-03-27T21:53:21.840Z,3.17
2018-03-27T21:55:52.716Z,3.23
2018-03-27T21:58:23.779Z,3.25
2018-03-27T22:00:54.868Z,3.21
2018-03-27T22:03:25.151Z,3.13
2018-03-27T22:05:56.750Z,3.18
2018-03-27T22:08:27.590Z,3.21
2018-03-27T22:10:58.594Z,2.94
2018-03-27T22:13:29.457Z,2.97
2018-03-27T22:16:00.408Z,2.95
2018-03-27T22:18:31.348Z,2.95
2018-03-27T22:21:02.371Z,2.79
2018-03-27T22:23:33.375Z,2.85
2018-03-27T22:26:04.450Z,2.86
2018-03-27T22:28:35.341Z,2.84
2018-03-27T22:31:06.883Z,2.87
2018-03-27T22:33:37.655Z,2.86
2018-03-27T22:36:08.726Z,2.84
2018-03-27T22:38:39.745Z,2.64
2018-03-27T22:41:10.904Z,2.60
2018-03-27T22:43:41.704Z,2.58
2018-03-27T22:46:12.741Z,2.55
2018-03-27T22:48:49.358Z,2.66
2018-03-27T22:51:18.923Z,2.57
2018-03-27T22:53:48.208Z,2.50
2018-03-27T22:56:17.466Z,2.41
2018-03-27T22:58:48.174Z,2.49
2018-03-27T23:01:18.438Z,2.44
2018-03-27T23:03:49.255Z,2.23
2018-03-27T23:06:19.833Z,2.25
2018-03-27T23:08:50.764Z,2.17
2018-03-27T23:11:21.802Z,2.32
2018-03-27T23:13:52.488Z,2.21
2018-03-27T23:16:22.980Z,2.25
2018-03-27T23:18:53.806Z,2.16
2018-03-27T23:21:24.770Z,2.14
2018-03-27T23:23:55.821Z,2.15
2018-03-27T23:26:26.416Z,2.22
2018-03-27T23:28:57.143Z,2.26
2018-03-27T23:31:27.793Z,2.33
2018-03-27T23:33:58.492Z,2.30
2018-03-27T23:36:29.146Z,2.32
2018-03-27T23:38:59.855Z,2.33
2018-03-27T23:41:30.401Z,2.33
2018-03-27T23:44:01.090Z,2.33
2018-03-27T23:46:31.008Z,2.32
2018-03-27T23:49:02.032Z,2.32
2018-03-27T23:51:32.701Z,2.30
2018-03-27T23:54:03.752Z,2.24
2018-03-27T23:56:34.687Z,2.23
2018-03-27T23:59:05.795Z,2.24
